sensor_id;sensor_type;location;lat;lon;timestamp;temperature;humidity
8226;DHT22;4154;48.810;9.012;2022-10-17T00:00:12;15.60;99.90
8226;DHT22;4154;48.810;9.012;2022-10-17T00:02:40;15.60;99.90
8226;DHT22;4154;48.810;9.012;2022-10-17T00:05:06;15.50;99.90
8226;DHT22;4154;48.810;9.012;2022-10-17T00:07:33;15.50;99.90
8226;DHT22;4154;48.810;9.012;2022-10-17T00:09:59;15.50;99.90
8226;DHT22;4154;48.810;9.012;2022-10-17T00:12:25;15.50;99.90
8226;DHT22;4154;48.810;9.012;2022-10-17T00:17:17;15.30;99.90
8226;DHT22;4154;48.810;9.012;2022-10-17T00:22:09;15.20;99.90
8226;DHT22;4154;48.810;9.012;2022-10-17T00:27:01;15.20;99.90
8226;DHT22;4154;48.810;9.012;2022-10-17T00:29:27;15.20;99.90
8226;DHT22;4154;48.810;9.012;2022-10-17T00:31:55;15.10;99.90
8226;DHT22;4154;48.810;9.012;2022-10-17T00:34:21;15.10;99.90
8226;DHT22;4154;48.810;9.012;2022-10-17T00:36:48;15.10;99.90
8226;DHT22;4154;48.810;9.012;2022-10-17T00:41:41;15.00;99.90
8226;DHT22;4154;48.810;9.012;2022-10-17T00:47:26;15.00;99.90
8226;DHT22;4154;48.810;9.012;2022-10-17T00:49:53;15.00;99.90
8226;DHT22;4154;48.810;9.012;2022-10-17T00:52:24;14.90;99.90
8226;DHT22;4154;48.810;9.012;2022-10-17T00:54:59;14.90;99.90
8226;DHT22;4154;48.810;9.012;2022-10-17T00:57:30;14.90;99.90
8226;DHT22;4154;48.810;9.012;2022-10-17T00:59:58;14.80;99.90
8226;DHT22;4154;48.810;9.012;2022-10-17T01:02:28;14.80;99.90
8226;DHT22;4154;48.810;9.012;2022-10-17T01:04:55;14.70;99.90
8226;DHT22;4154;48.810;9.012;2022-10-17T01:07:24;14.70;99.90
8226;DHT22;4154;48.810;9.012;2022-10-17T01:09:52;14.70;99.90
8226;DHT22;4154;48.810;9.012;2022-10-17T01:12:25;14.60;99.90
8226;DHT22;4154;48.810;9.012;2022-10-17T01:24:05;14.50;99.90
8226;DHT22;4154;48.810;9.012;2022-10-17T01:29:35;14.50;99.90
8226;DHT22;4154;48.810;9.012;2022-10-17T01:37:30;14.50;99.90
8226;DHT22;4154;48.810;9.012;2022-10-17T01:40:13;14.40;99.90
8226;DHT22;4154;48.810;9.012;2022-10-17T01:45:20;14.40;99.90
8226;DHT22;4154;48.810;9.012;2022-10-17T01:47:52;14.40;99.90
8226;DHT22;4154;48.810;9.012;2022-10-17T01:50:48;14.40;99.90
8226;DHT22;4154;48.810;9.012;2022-10-17T01:53:19;14.30;99.90
8226;DHT22;4154;48.810;9.012;2022-10-17T01:55:53;14.30;99.90
8226;DHT22;4154;48.810;9.012;2022-10-17T01:58:33;14.30;99.90
8226;DHT22;4154;48.810;9.012;2022-10-17T02:01:05;14.30;99.90
8226;DHT22;4154;48.810;9.012;2022-10-17T02:03:34;14.40;99.90
8226;DHT22;4154;48.810;9.012;2022-10-17T02:06:00;14.20;99.90
8226;DHT22;4154;48.810;9.012;2022-10-17T02:08:47;14.20;99.90
8226;DHT22;4154;48.810;9.012;2022-10-17T02:11:25;14.20;99.90
8226;DHT22;4154;48.810;9.012;2022-10-17T02:17:16;14.10;99.90
8226;DHT22;4154;48.810;9.012;2022-10-17T02:25:47;14.10;99.90
8226;DHT22;4154;48.810;9.012;2022-10-17T02:28:23;14.10;99.90
8226;DHT22;4154;48.810;9.012;2022-10-17T02:31:09;14.00;99.90
8226;DHT22;4154;48.810;9.012;2022-10-17T02:33:54;13.70;99.90
8226;DHT22;4154;48.810;9.012;2022-10-17T02:36:28;13.90;99.90
8226;DHT22;4154;48.810;9.012;2022-10-17T02:39:00;13.90;99.90
8226;DHT22;4154;48.810;9.012;2022-10-17T02:41:29;13.90;99.90
8226;DHT22;4154;48.810;9.012;2022-10-17T02:43:56;13.90;99.90
8226;DHT22;4154;48.810;9.012;2022-10-17T02:46:23;13.80;99.90
8226;DHT22;4154;48.810;9.012;2022-10-17T02:49:06;13.80;99.90
8226;DHT22;4154;48.810;9.012;2022-10-17T02:51:49;13.80;99.90
8226;DHT22;4154;48.810;9.012;2022-10-17T02:55:11;13.80;99.90
8226;DHT22;4154;48.810;9.012;2022-10-17T02:57:47;13.70;99.90
8226;DHT22;4154;48.810;9.012;2022-10-17T03:00:17;13.70;99.90
8226;DHT22;4154;48.810;9.012;2022-10-17T03:02:49;13.70;99.90
8226;DHT22;4154;48.810;9.012;2022-10-17T03:05:26;13.60;99.90
8226;DHT22;4154;48.810;9.012;2022-10-17T03:07:54;13.60;99.90
8226;DHT22;4154;48.810;9.012;2022-10-17T03:10:21;13.60;99.90
8226;DHT22;4154;48.810;9.012;2022-10-17T03:20:07;13.60;99.90
8226;DHT22;4154;48.810;9.012;2022-10-17T03:22:33;13.50;99.90
8226;DHT22;4154;48.810;9.012;2022-10-17T03:27:25;13.50;99.90
8226;DHT22;4154;48.810;9.012;2022-10-17T03:32:17;13.50;99.90
8226;DHT22;4154;48.810;9.012;2022-10-17T03:34:43;13.50;99.90
8226;DHT22;4154;48.810;9.012;2022-10-17T03:37:09;13.50;99.90
8226;DHT22;4154;48.810;9.012;2022-10-17T03:42:00;13.50;99.90
8226;DHT22;4154;48.810;9.012;2022-10-17T03:44:26;13.50;99.90
8226;DHT22;4154;48.810;9.012;2022-10-17T03:49:18;13.50;99.90
8226;DHT22;4154;48.810;9.012;2022-10-17T03:54:10;13.50;99.90
8226;DHT22;4154;48.810;9.012;2022-10-17T03:59:02;13.40;99.90
8226;DHT22;4154;48.810;9.012;2022-10-17T04:01:28;13.40;99.90
8226;DHT22;4154;48.810;9.012;2022-10-17T04:03:55;13.30;99.90
8226;DHT22;4154;48.810;9.012;2022-10-17T04:06:22;13.30;99.90
8226;DHT22;4154;48.810;9.012;2022-10-17T04:08:48;13.30;99.90
8226;DHT22;4154;48.810;9.012;2022-10-17T04:11:19;13.30;99.90
8226;DHT22;4154;48.810;9.012;2022-10-17T04:13:57;13.50;99.90
8226;DHT22;4154;48.810;9.012;2022-10-17T04:18:55;13.20;99.90
8226;DHT22;4154;48.810;9.012;2022-10-17T04:21:23;13.20;99.90
8226;DHT22;4154;48.810;9.012;2022-10-17T04:23:55;13.10;99.90
8226;DHT22;4154;48.810;9.012;2022-10-17T04:26:25;13.20;99.90
8226;DHT22;4154;48.810;9.012;2022-10-17T04:28:51;13.20;99.90
8226;DHT22;4154;48.810;9.012;2022-10-17T04:31:18;13.20;99.90
8226;DHT22;4154;48.810;9.012;2022-10-17T04:33:46;13.20;99.90
8226;DHT22;4154;48.810;9.012;2022-10-17T04:36:15;13.10;99.90
8226;DHT22;4154;48.810;9.012;2022-10-17T04:38:43;13.10;99.90
8226;DHT22;4154;48.810;9.012;2022-10-17T04:41:13;13.10;99.90
8226;DHT22;4154;48.810;9.012;2022-10-17T04:46:41;13.10;99.90
8226;DHT22;4154;48.810;9.012;2022-10-17T04:49:07;13.10;99.90
8226;DHT22;4154;48.810;9.012;2022-10-17T04:51:33;13.10;99.90
8226;DHT22;4154;48.810;9.012;2022-10-17T04:53:59;13.10;99.90
8226;DHT22;4154;48.810;9.012;2022-10-17T04:58:51;13.00;99.90
8226;DHT22;4154;48.810;9.012;2022-10-17T05:01:20;13.10;99.90
8226;DHT22;4154;48.810;9.012;2022-10-17T05:03:47;12.90;99.90
8226;DHT22;4154;48.810;9.012;2022-10-17T05:06:19;13.10;99.90
8226;DHT22;4154;48.810;9.012;2022-10-17T05:08:47;13.20;99.90
8226;DHT22;4154;48.810;9.012;2022-10-17T05:11:19;13.20;99.90
8226;DHT22;4154;48.810;9.012;2022-10-17T05:13:59;13.30;99.90
8226;DHT22;4154;48.810;9.012;2022-10-17T05:16:26;13.20;99.90
8226;DHT22;4154;48.810;9.012;2022-10-17T05:18:55;13.20;99.90
8226;DHT22;4154;48.810;9.012;2022-10-17T05:21:24;13.20;99.90
8226;DHT22;4154;48.810;9.012;2022-10-17T05:23:51;13.20;99.90
8226;DHT22;4154;48.810;9.012;2022-10-17T05:26:18;13.20;99.90
8226;DHT22;4154;48.810;9.012;2022-10-17T05:28:44;13.20;99.90
8226;DHT22;4154;48.810;9.012;2022-10-17T05:31:10;13.20;99.90
8226;DHT22;4154;48.810;9.012;2022-10-17T05:33:37;12.90;99.90
8226;DHT22;4154;48.810;9.012;2022-10-17T05:36:04;13.20;99.90
8226;DHT22;4154;48.810;9.012;2022-10-17T05:38:30;13.20;99.90
8226;DHT22;4154;48.810;9.012;2022-10-17T05:41:01;13.30;99.90
8226;DHT22;4154;48.810;9.012;2022-10-17T05:43:28;13.30;99.90
8226;DHT22;4154;48.810;9.012;2022-10-17T05:45:55;13.30;99.90
8226;DHT22;4154;48.810;9.012;2022-10-17T05:48:21;13.30;99.90
8226;DHT22;4154;48.810;9.012;2022-10-17T05:50:48;13.40;99.90
8226;DHT22;4154;48.810;9.012;2022-10-17T05:53:15;13.40;99.90
8226;DHT22;4154;48.810;9.012;2022-10-17T05:55:41;13.40;99.90
8226;DHT22;4154;48.810;9.012;2022-10-17T06:00:33;13.40;99.90
8226;DHT22;4154;48.810;9.012;2022-10-17T06:02:59;13.40;99.90
8226;DHT22;4154;48.810;9.012;2022-10-17T06:05:25;13.50;99.90
8226;DHT22;4154;48.810;9.012;2022-10-17T06:07:50;13.50;99.90
8226;DHT22;4154;48.810;9.012;2022-10-17T06:10:19;13.50;99.90
8226;DHT22;4154;48.810;9.012;2022-10-17T06:15:12;13.50;99.90
8226;DHT22;4154;48.810;9.012;2022-10-17T06:17:37;13.40;99.90
8226;DHT22;4154;48.810;9.012;2022-10-17T06:20:04;13.40;99.90
8226;DHT22;4154;48.810;9.012;2022-10-17T06:22:37;13.40;99.90
8226;DHT22;4154;48.810;9.012;2022-10-17T06:25:03;13.40;99.90
8226;DHT22;4154;48.810;9.012;2022-10-17T06:27:30;13.40;99.90
8226;DHT22;4154;48.810;9.012;2022-10-17T06:29:55;13.40;99.90
8226;DHT22;4154;48.810;9.012;2022-10-17T06:32:21;13.50;99.90
8226;DHT22;4154;48.810;9.012;2022-10-17T06:37:13;13.50;99.90
8226;DHT22;4154;48.810;9.012;2022-10-17T06:42:05;13.50;99.90
8226;DHT22;4154;48.810;9.012;2022-10-17T06:44:31;13.50;99.90
8226;DHT22;4154;48.810;9.012;2022-10-17T06:46:58;13.50;99.90
8226;DHT22;4154;48.810;9.012;2022-10-17T06:49:24;13.50;99.90
8226;DHT22;4154;48.810;9.012;2022-10-17T06:51:51;13.60;99.90
8226;DHT22;4154;48.810;9.012;2022-10-17T06:54:19;13.50;99.90
8226;DHT22;4154;48.810;9.012;2022-10-17T06:56:45;13.50;99.90
8226;DHT22;4154;48.810;9.012;2022-10-17T07:01:37;13.60;99.90
8226;DHT22;4154;48.810;9.012;2022-10-17T07:04:03;13.60;99.90
8226;DHT22;4154;48.810;9.012;2022-10-17T07:08:55;13.70;99.90
8226;DHT22;4154;48.810;9.012;2022-10-17T07:11:21;13.70;99.90
8226;DHT22;4154;48.810;9.012;2022-10-17T07:13:50;13.60;99.90
8226;DHT22;4154;48.810;9.012;2022-10-17T07:16:16;13.80;99.90
8226;DHT22;4154;48.810;9.012;2022-10-17T07:18:42;13.90;99.90
8226;DHT22;4154;48.810;9.012;2022-10-17T07:21:08;13.90;99.90
8226;DHT22;4154;48.810;9.012;2022-10-17T07:27:26;14.10;99.90
8226;DHT22;4154;48.810;9.012;2022-10-17T07:29:52;14.20;99.90
8226;DHT22;4154;48.810;9.012;2022-10-17T07:32:18;14.20;99.90
8226;DHT22;4154;48.810;9.012;2022-10-17T07:34:44;14.30;99.90
8226;DHT22;4154;48.810;9.012;2022-10-17T07:37:12;14.50;99.90
8226;DHT22;4154;48.810;9.012;2022-10-17T07:39:37;14.50;99.90
8226;DHT22;4154;48.810;9.012;2022-10-17T07:42:04;14.50;99.90
8226;DHT22;4154;48.810;9.012;2022-10-17T07:44:32;14.60;99.90
8226;DHT22;4154;48.810;9.012;2022-10-17T07:46:58;14.70;99.90
8226;DHT22;4154;48.810;9.012;2022-10-17T07:51:49;14.80;99.90
8226;DHT22;4154;48.810;9.012;2022-10-17T07:56:41;14.90;99.90
8226;DHT22;4154;48.810;9.012;2022-10-17T08:01:34;15.10;99.90
8226;DHT22;4154;48.810;9.012;2022-10-17T08:04:00;15.10;99.90
8226;DHT22;4154;48.810;9.012;2022-10-17T08:08:52;15.30;99.90
8226;DHT22;4154;48.810;9.012;2022-10-17T08:13:44;15.50;99.90
8226;DHT22;4154;48.810;9.012;2022-10-17T08:16:11;15.50;99.90
8226;DHT22;4154;48.810;9.012;2022-10-17T08:18:39;15.60;99.90
8226;DHT22;4154;48.810;9.012;2022-10-17T08:21:06;15.70;99.90
8226;DHT22;4154;48.810;9.012;2022-10-17T08:23:34;15.80;99.90
8226;DHT22;4154;48.810;9.012;2022-10-17T08:26:02;15.80;99.90
8226;DHT22;4154;48.810;9.012;2022-10-17T08:28:34;15.90;99.90
8226;DHT22;4154;48.810;9.012;2022-10-17T08:31:06;16.00;99.90
8226;DHT22;4154;48.810;9.012;2022-10-17T08:33:36;16.30;99.90
8226;DHT22;4154;48.810;9.012;2022-10-17T08:36:04;16.20;99.90
8226;DHT22;4154;48.810;9.012;2022-10-17T08:38:32;16.30;99.90
8226;DHT22;4154;48.810;9.012;2022-10-17T08:41:04;16.40;99.90
8226;DHT22;4154;48.810;9.012;2022-10-17T08:43:54;16.60;99.90
8226;DHT22;4154;48.810;9.012;2022-10-17T08:46:51;16.60;99.90
8226;DHT22;4154;48.810;9.012;2022-10-17T08:55:00;16.90;99.90
8226;DHT22;4154;48.810;9.012;2022-10-17T08:57:26;17.00;99.90
8226;DHT22;4154;48.810;9.012;2022-10-17T08:59:53;17.10;99.90
8226;DHT22;4154;48.810;9.012;2022-10-17T09:03:09;17.20;99.90
8226;DHT22;4154;48.810;9.012;2022-10-17T09:08:10;17.30;99.90
8226;DHT22;4154;48.810;9.012;2022-10-17T09:17:42;17.40;99.90
8226;DHT22;4154;48.810;9.012;2022-10-17T09:20:41;17.40;99.90
8226;DHT22;4154;48.810;9.012;2022-10-17T09:24:02;17.50;99.90
8226;DHT22;4154;48.810;9.012;2022-10-17T09:26:29;17.50;99.90
8226;DHT22;4154;48.810;9.012;2022-10-17T09:28:58;17.60;99.90
8226;DHT22;4154;48.810;9.012;2022-10-17T09:31:29;17.70;99.90
8226;DHT22;4154;48.810;9.012;2022-10-17T09:34:01;17.70;99.90
8226;DHT22;4154;48.810;9.012;2022-10-17T09:36:28;17.80;99.90
8226;DHT22;4154;48.810;9.012;2022-10-17T09:39:05;17.80;99.90
8226;DHT22;4154;48.810;9.012;2022-10-17T09:41:43;17.90;99.90
8226;DHT22;4154;48.810;9.012;2022-10-17T09:49:32;18.10;99.90
8226;DHT22;4154;48.810;9.012;2022-10-17T09:52:03;18.20;99.90
8226;DHT22;4154;48.810;9.012;2022-10-17T09:54:50;18.20;99.90
8226;DHT22;4154;48.810;9.012;2022-10-17T09:57:20;18.30;99.90
8226;DHT22;4154;48.810;9.012;2022-10-17T10:00:02;18.30;99.90
8226;DHT22;4154;48.810;9.012;2022-10-17T10:02:30;18.40;99.90
8226;DHT22;4154;48.810;9.012;2022-10-17T10:05:18;18.50;99.90
8226;DHT22;4154;48.810;9.012;2022-10-17T10:08:02;18.50;99.90
8226;DHT22;4154;48.810;9.012;2022-10-17T10:10:30;18.60;99.90
8226;DHT22;4154;48.810;9.012;2022-10-17T10:15:48;18.70;99.90
8226;DHT22;4154;48.810;9.012;2022-10-17T10:23:31;18.80;99.90
8226;DHT22;4154;48.810;9.012;2022-10-17T10:26:16;18.90;99.90
8226;DHT22;4154;48.810;9.012;2022-10-17T10:31:43;19.00;99.90
8226;DHT22;4154;48.810;9.012;2022-10-17T10:42:36;19.30;99.90
8226;DHT22;4154;48.810;9.012;2022-10-17T10:45:20;19.40;99.90
8226;DHT22;4154;48.810;9.012;2022-10-17T10:47:55;19.40;99.90
8226;DHT22;4154;48.810;9.012;2022-10-17T10:50:36;19.50;99.90
8226;DHT22;4154;48.810;9.012;2022-10-17T10:58:54;19.70;99.90
8226;DHT22;4154;48.810;9.012;2022-10-17T11:04:41;19.80;99.90
8226;DHT22;4154;48.810;9.012;2022-10-17T11:07:22;19.90;99.90
8226;DHT22;4154;48.810;9.012;2022-10-17T11:13:17;20.00;99.90
8226;DHT22;4154;48.810;9.012;2022-10-17T11:15:56;20.10;99.90
8226;DHT22;4154;48.810;9.012;2022-10-17T11:18:43;20.10;99.90
8226;DHT22;4154;48.810;9.012;2022-10-17T11:21:40;20.30;99.90
8226;DHT22;4154;48.810;9.012;2022-10-17T11:27:08;20.50;99.90
8226;DHT22;4154;48.810;9.012;2022-10-17T11:29:36;20.60;99.90
8226;DHT22;4154;48.810;9.012;2022-10-17T11:32:12;20.50;99.90
8226;DHT22;4154;48.810;9.012;2022-10-17T11:34:47;20.70;99.90
8226;DHT22;4154;48.810;9.012;2022-10-17T11:37:19;20.60;99.90
8226;DHT22;4154;48.810;9.012;2022-10-17T11:39:56;20.80;99.90
8226;DHT22;4154;48.810;9.012;2022-10-17T11:42:36;20.80;99.90
8226;DHT22;4154;48.810;9.012;2022-10-17T11:45:16;20.80;99.90
8226;DHT22;4154;48.810;9.012;2022-10-17T11:47:49;21.00;99.90
8226;DHT22;4154;48.810;9.012;2022-10-17T11:50:33;21.10;99.90
8226;DHT22;4154;48.810;9.012;2022-10-17T11:53:18;21.20;99.90
8226;DHT22;4154;48.810;9.012;2022-10-17T11:55:47;21.30;99.90
8226;DHT22;4154;48.810;9.012;2022-10-17T12:01:48;21.40;99.90
8226;DHT22;4154;48.810;9.012;2022-10-17T12:09:48;21.70;99.30
8226;DHT22;4154;48.810;9.012;2022-10-17T12:12:38;21.70;99.70
8226;DHT22;4154;48.810;9.012;2022-10-17T12:18:02;21.90;99.00
8226;DHT22;4154;48.810;9.012;2022-10-17T12:23:17;22.10;98.50
8226;DHT22;4154;48.810;9.012;2022-10-17T12:25:53;22.10;98.40
8226;DHT22;4154;48.810;9.012;2022-10-17T12:28:52;22.20;98.90
8226;DHT22;4154;48.810;9.012;2022-10-17T12:49:47;22.30;99.90
8226;DHT22;4154;48.810;9.012;2022-10-17T12:57:42;22.10;99.90
8226;DHT22;4154;48.810;9.012;2022-10-17T13:01:02;22.10;99.90
8226;DHT22;4154;48.810;9.012;2022-10-17T13:03:23;22.10;99.90
8226;DHT22;4154;48.810;9.012;2022-10-17T13:05:59;22.10;99.90
8226;DHT22;4154;48.810;9.012;2022-10-17T13:08:32;22.10;99.90
8226;DHT22;4154;48.810;9.012;2022-10-17T13:11:00;22.10;99.90
8226;DHT22;4154;48.810;9.012;2022-10-17T13:15:59;22.00;99.90
8226;DHT22;4154;48.810;9.012;2022-10-17T13:18:27;22.00;99.90
8226;DHT22;4154;48.810;9.012;2022-10-17T13:21:06;22.00;99.90
8226;DHT22;4154;48.810;9.012;2022-10-17T13:23:40;22.00;99.80
8226;DHT22;4154;48.810;9.012;2022-10-17T13:26:23;22.00;99.50
8226;DHT22;4154;48.810;9.012;2022-10-17T13:31:35;22.00;99.50
8226;DHT22;4154;48.810;9.012;2022-10-17T13:34:06;22.00;98.70
8226;DHT22;4154;48.810;9.012;2022-10-17T13:36:41;22.00;98.70
8226;DHT22;4154;48.810;9.012;2022-10-17T13:39:17;22.00;98.30
8226;DHT22;4154;48.810;9.012;2022-10-17T13:41:45;22.00;98.60
8226;DHT22;4154;48.810;9.012;2022-10-17T13:44:17;22.00;98.00
8226;DHT22;4154;48.810;9.012;2022-10-17T13:46:45;22.00;98.20
8226;DHT22;4154;48.810;9.012;2022-10-17T13:49:22;22.00;98.10
8226;DHT22;4154;48.810;9.012;2022-10-17T13:51:57;22.10;97.50
8226;DHT22;4154;48.810;9.012;2022-10-17T13:57:03;22.10;97.70
8226;DHT22;4154;48.810;9.012;2022-10-17T13:59:37;22.10;97.90
8226;DHT22;4154;48.810;9.012;2022-10-17T14:02:08;22.00;97.50
8226;DHT22;4154;48.810;9.012;2022-10-17T14:04:39;22.00;97.80
8226;DHT22;4154;48.810;9.012;2022-10-17T14:07:11;22.00;97.10
8226;DHT22;4154;48.810;9.012;2022-10-17T14:09:46;22.10;97.40
8226;DHT22;4154;48.810;9.012;2022-10-17T14:12:12;22.10;97.40
8226;DHT22;4154;48.810;9.012;2022-10-17T14:14:39;22.10;96.80
8226;DHT22;4154;48.810;9.012;2022-10-17T14:17:17;22.10;96.90
8226;DHT22;4154;48.810;9.012;2022-10-17T14:19:55;22.10;97.30
8226;DHT22;4154;48.810;9.012;2022-10-17T14:22:28;22.10;97.10
8226;DHT22;4154;48.810;9.012;2022-10-17T14:24:55;22.10;97.20
8226;DHT22;4154;48.810;9.012;2022-10-17T14:27:33;22.10;97.60
8226;DHT22;4154;48.810;9.012;2022-10-17T14:30:51;22.10;97.60
8226;DHT22;4154;48.810;9.012;2022-10-17T14:33:01;22.10;97.80
8226;DHT22;4154;48.810;9.012;2022-10-17T14:35:30;22.10;97.70
8226;DHT22;4154;48.810;9.012;2022-10-17T14:37:59;22.10;97.80
8226;DHT22;4154;48.810;9.012;2022-10-17T14:40:28;22.10;98.20
8226;DHT22;4154;48.810;9.012;2022-10-17T14:42:58;22.10;96.50
8226;DHT22;4154;48.810;9.012;2022-10-17T14:45:33;22.10;97.00
8226;DHT22;4154;48.810;9.012;2022-10-17T14:48:13;22.10;97.40
8226;DHT22;4154;48.810;9.012;2022-10-17T14:50:41;22.10;97.50
8226;DHT22;4154;48.810;9.012;2022-10-17T14:55:55;22.00;97.70
8226;DHT22;4154;48.810;9.012;2022-10-17T14:58:31;21.90;97.90
8226;DHT22;4154;48.810;9.012;2022-10-17T15:00:59;21.90;98.00
8226;DHT22;4154;48.810;9.012;2022-10-17T15:03:26;21.90;98.20
8226;DHT22;4154;48.810;9.012;2022-10-17T15:05:53;21.80;98.20
8226;DHT22;4154;48.810;9.012;2022-10-17T15:08:21;21.80;98.70
8226;DHT22;4154;48.810;9.012;2022-10-17T15:10:49;21.70;99.00
8226;DHT22;4154;48.810;9.012;2022-10-17T15:13:16;21.60;98.80
8226;DHT22;4154;48.810;9.012;2022-10-17T15:15:42;21.60;99.00
8226;DHT22;4154;48.810;9.012;2022-10-17T15:18:10;21.60;98.90
8226;DHT22;4154;48.810;9.012;2022-10-17T15:20:37;21.60;98.00
8226;DHT22;4154;48.810;9.012;2022-10-17T15:23:03;21.60;97.70
8226;DHT22;4154;48.810;9.012;2022-10-17T15:25:30;21.60;97.80
8226;DHT22;4154;48.810;9.012;2022-10-17T15:27:57;21.60;98.00
8226;DHT22;4154;48.810;9.012;2022-10-17T15:30:29;21.60;97.80
8226;DHT22;4154;48.810;9.012;2022-10-17T15:32:57;21.60;97.50
8226;DHT22;4154;48.810;9.012;2022-10-17T15:35:24;21.50;97.70
8226;DHT22;4154;48.810;9.012;2022-10-17T15:37:51;21.50;97.70
8226;DHT22;4154;48.810;9.012;2022-10-17T15:40:20;21.50;97.70
8226;DHT22;4154;48.810;9.012;2022-10-17T15:42:49;21.50;98.00
8226;DHT22;4154;48.810;9.012;2022-10-17T15:45:17;21.50;98.10
8226;DHT22;4154;48.810;9.012;2022-10-17T15:47:59;21.40;98.10
8226;DHT22;4154;48.810;9.012;2022-10-17T15:50:30;21.40;97.90
8226;DHT22;4154;48.810;9.012;2022-10-17T15:52:55;21.40;98.10
8226;DHT22;4154;48.810;9.012;2022-10-17T15:55:21;21.30;98.10
8226;DHT22;4154;48.810;9.012;2022-10-17T15:57:48;21.30;97.90
8226;DHT22;4154;48.810;9.012;2022-10-17T16:02:43;21.30;97.90
8226;DHT22;4154;48.810;9.012;2022-10-17T16:05:17;21.20;97.90
8226;DHT22;4154;48.810;9.012;2022-10-17T16:07:50;21.20;98.10
8226;DHT22;4154;48.810;9.012;2022-10-17T16:10:17;21.20;98.50
8226;DHT22;4154;48.810;9.012;2022-10-17T16:12:44;21.10;98.80
8226;DHT22;4154;48.810;9.012;2022-10-17T16:15:23;21.00;99.10
8226;DHT22;4154;48.810;9.012;2022-10-17T16:17:51;20.90;99.40
8226;DHT22;4154;48.810;9.012;2022-10-17T16:20:19;20.80;99.50
8226;DHT22;4154;48.810;9.012;2022-10-17T16:22:46;20.80;99.60
8226;DHT22;4154;48.810;9.012;2022-10-17T16:25:23;20.70;99.50
8226;DHT22;4154;48.810;9.012;2022-10-17T16:27:53;20.60;99.60
8226;DHT22;4154;48.810;9.012;2022-10-17T16:30:23;20.60;99.70
8226;DHT22;4154;48.810;9.012;2022-10-17T16:32:50;20.60;99.90
8226;DHT22;4154;48.810;9.012;2022-10-17T16:35:20;20.50;99.90
8226;DHT22;4154;48.810;9.012;2022-10-17T16:37:48;20.40;99.90
8226;DHT22;4154;48.810;9.012;2022-10-17T16:40:15;20.30;99.90
8226;DHT22;4154;48.810;9.012;2022-10-17T16:42:41;20.30;99.90
8226;DHT22;4154;48.810;9.012;2022-10-17T16:45:07;20.20;99.90
8226;DHT22;4154;48.810;9.012;2022-10-17T16:47:34;20.10;99.90
8226;DHT22;4154;48.810;9.012;2022-10-17T16:50:00;20.00;99.90
8226;DHT22;4154;48.810;9.012;2022-10-17T16:52:25;20.00;99.90
8226;DHT22;4154;48.810;9.012;2022-10-17T16:54:51;20.00;99.90
8226;DHT22;4154;48.810;9.012;2022-10-17T16:57:17;20.00;99.90
8226;DHT22;4154;48.810;9.012;2022-10-17T16:59:43;19.90;99.90
8226;DHT22;4154;48.810;9.012;2022-10-17T17:02:10;19.90;99.90
8226;DHT22;4154;48.810;9.012;2022-10-17T17:04:36;19.90;99.90
8226;DHT22;4154;48.810;9.012;2022-10-17T17:07:02;19.80;99.90
8226;DHT22;4154;48.810;9.012;2022-10-17T17:09:28;19.80;99.90
8226;DHT22;4154;48.810;9.012;2022-10-17T17:11:53;19.70;99.90
8226;DHT22;4154;48.810;9.012;2022-10-17T17:14:19;19.20;99.90
8226;DHT22;4154;48.810;9.012;2022-10-17T17:16:45;19.60;99.90
8226;DHT22;4154;48.810;9.012;2022-10-17T17:19:13;19.50;99.90
8226;DHT22;4154;48.810;9.012;2022-10-17T17:21:41;19.50;99.90
8226;DHT22;4154;48.810;9.012;2022-10-17T17:24:16;19.50;99.90
8226;DHT22;4154;48.810;9.012;2022-10-17T17:26:45;19.40;99.90
8226;DHT22;4154;48.810;9.012;2022-10-17T17:29:14;19.30;99.90
8226;DHT22;4154;48.810;9.012;2022-10-17T17:31:39;19.20;99.90
8226;DHT22;4154;48.810;9.012;2022-10-17T17:34:05;19.20;99.90
8226;DHT22;4154;48.810;9.012;2022-10-17T17:36:33;19.10;99.90
8226;DHT22;4154;48.810;9.012;2022-10-17T17:39:03;19.10;99.90
8226;DHT22;4154;48.810;9.012;2022-10-17T17:41:31;19.00;99.90
8226;DHT22;4154;48.810;9.012;2022-10-17T17:43:59;19.00;99.90
8226;DHT22;4154;48.810;9.012;2022-10-17T17:46:26;18.90;99.90
8226;DHT22;4154;48.810;9.012;2022-10-17T17:48:53;18.90;99.90
8226;DHT22;4154;48.810;9.012;2022-10-17T17:51:22;18.90;99.90
8226;DHT22;4154;48.810;9.012;2022-10-17T17:53:49;19.50;99.90
8226;DHT22;4154;48.810;9.012;2022-10-17T17:56:24;18.80;99.90
8226;DHT22;4154;48.810;9.012;2022-10-17T17:58:57;18.70;99.90
8226;DHT22;4154;48.810;9.012;2022-10-17T18:01:28;18.70;99.90
8226;DHT22;4154;48.810;9.012;2022-10-17T18:03:56;18.70;99.90
8226;DHT22;4154;48.810;9.012;2022-10-17T18:06:23;18.60;99.90
8226;DHT22;4154;48.810;9.012;2022-10-17T18:08:54;18.60;99.90
8226;DHT22;4154;48.810;9.012;2022-10-17T18:11:26;18.50;99.90
8226;DHT22;4154;48.810;9.012;2022-10-17T18:13:54;18.50;99.90
8226;DHT22;4154;48.810;9.012;2022-10-17T18:16:21;18.50;99.90
8226;DHT22;4154;48.810;9.012;2022-10-17T18:18:48;18.40;99.90
8226;DHT22;4154;48.810;9.012;2022-10-17T18:21:14;18.40;99.90
8226;DHT22;4154;48.810;9.012;2022-10-17T18:23:42;18.50;99.90
8226;DHT22;4154;48.810;9.012;2022-10-17T18:26:10;18.30;99.90
8226;DHT22;4154;48.810;9.012;2022-10-17T18:28:37;18.20;99.90
8226;DHT22;4154;48.810;9.012;2022-10-17T18:31:12;18.20;99.90
8226;DHT22;4154;48.810;9.012;2022-10-17T18:33:40;18.00;99.90
8226;DHT22;4154;48.810;9.012;2022-10-17T18:36:09;18.10;99.90
8226;DHT22;4154;48.810;9.012;2022-10-17T18:38:37;18.00;99.90
8226;DHT22;4154;48.810;9.012;2022-10-17T18:41:05;17.90;99.90
8226;DHT22;4154;48.810;9.012;2022-10-17T18:43:34;17.80;99.90
8226;DHT22;4154;48.810;9.012;2022-10-17T18:46:03;17.70;99.90
8226;DHT22;4154;48.810;9.012;2022-10-17T18:48:31;17.70;99.90
8226;DHT22;4154;48.810;9.012;2022-10-17T18:50:58;17.60;99.90
8226;DHT22;4154;48.810;9.012;2022-10-17T18:53:25;17.50;99.90
8226;DHT22;4154;48.810;9.012;2022-10-17T18:55:52;17.50;99.90
8226;DHT22;4154;48.810;9.012;2022-10-17T18:58:18;17.50;99.90
8226;DHT22;4154;48.810;9.012;2022-10-17T19:00:45;17.50;99.90
8226;DHT22;4154;48.810;9.012;2022-10-17T19:03:12;17.50;99.90
8226;DHT22;4154;48.810;9.012;2022-10-17T19:05:39;17.50;99.90
8226;DHT22;4154;48.810;9.012;2022-10-17T19:08:05;17.40;99.90
8226;DHT22;4154;48.810;9.012;2022-10-17T19:10:32;17.40;99.90
8226;DHT22;4154;48.810;9.012;2022-10-17T19:12:58;17.40;99.90
8226;DHT22;4154;48.810;9.012;2022-10-17T19:15:24;17.30;99.90
8226;DHT22;4154;48.810;9.012;2022-10-17T19:17:51;17.30;99.90
8226;DHT22;4154;48.810;9.012;2022-10-17T19:20:17;17.30;99.90
8226;DHT22;4154;48.810;9.012;2022-10-17T19:22:42;17.20;99.90
8226;DHT22;4154;48.810;9.012;2022-10-17T19:25:08;17.20;99.90
8226;DHT22;4154;48.810;9.012;2022-10-17T19:27:35;17.10;99.90
8226;DHT22;4154;48.810;9.012;2022-10-17T19:30:01;17.10;99.90
8226;DHT22;4154;48.810;9.012;2022-10-17T19:32:27;17.10;99.90
8226;DHT22;4154;48.810;9.012;2022-10-17T19:34:53;17.10;99.90
8226;DHT22;4154;48.810;9.012;2022-10-17T19:39:45;17.00;99.90
8226;DHT22;4154;48.810;9.012;2022-10-17T19:42:13;17.00;99.90
8226;DHT22;4154;48.810;9.012;2022-10-17T19:44:38;16.90;99.90
8226;DHT22;4154;48.810;9.012;2022-10-17T19:47:04;16.90;99.90
8226;DHT22;4154;48.810;9.012;2022-10-17T19:49:30;16.90;99.90
8226;DHT22;4154;48.810;9.012;2022-10-17T19:51:55;16.90;99.90
8226;DHT22;4154;48.810;9.012;2022-10-17T19:54:21;16.90;99.90